Shenanigans — WDE2753 — position and weather

sailwx.info

Track history (hours):
 
Tides and Currents Weather Stations Pressure Air Temp Water Temp Dewpoint Dewpoint Depression Visibility Wind Speed Wind Dir Waves Ship Positions

Shenanigans

Owner: Winton, Gary J, El Segundo, CA. More information available from US FCC via Universal Licensing System and Coast Guard Vessel Documentation Center.

Last reported at 2017-Oct-06 17:58 UTC. Time now 2017-Nov-25 02:15 UTC.
Position N 32°43' W 117°13'.
Warning: this ship's position is 49 days out of date.

Length 10 m.

Type: Sailing vessel. MMSI: 367329210.

Date/timePositionNaut miles runAvg speedWind from/ knotsBaromVisibWave heightAir tempDewpointWater temp
2017-Oct-06 17:58N 32°43' W 117°13'0 0.6
2017-Oct-06 17:27N 32°43' W 117°13'3 6.4
2017-Oct-06 17:00N 32°40' W 117°14'2 4.2
2017-Oct-06 16:30N 32°41' W 117°16'3 6.4
2017-Oct-06 15:59N 32°44' W 117°17'3 6.7
2017-Oct-06 15:30N 32°47' W 117°18'3 7.0
2017-Oct-06 15:00N 32°50' W 117°18'4 7.0
2017-Oct-06 14:30N 32°54' W 117°20'3 6.9
2017-Oct-06 14:00N 32°57' W 117°21'3 7.0
2017-Oct-06 13:30N 32°60' W 117°24'3 6.9
2017-Oct-06 13:00N 33°03' W 117°26'3 6.9
2017-Oct-06 12:30N 33°05' W 117°29'3 6.8
2017-Oct-06 12:00N 33°08' W 117°31'3 6.8
2017-Oct-06 11:30N 33°11' W 117°33'3 6.9
2017-Oct-06 11:00N 33°14' W 117°36'3 6.9
2017-Oct-06 10:30N 33°17' W 117°38'3 7.0
2017-Oct-06 10:00N 33°19' W 117°40'3 7.0
2017-Oct-06 09:30N 33°22' W 117°43'3 6.9
2017-Oct-06 09:00N 33°25' W 117°45'3 6.6
2017-Oct-06 08:30N 33°28' W 117°47'3 6.8
2017-Oct-06 08:00N 33°31' W 117°50'3 7.0
2017-Oct-06 07:30N 33°34' W 117°52'3 5.6
2017-Oct-06 07:00N 33°36' W 117°53'0 0.0
2017-Oct-05 21:33N 33°36' W 117°53'0 0.0
2017-Oct-05 21:30N 33°36' W 117°53'1 1.0
2017-Oct-05 20:59N 33°36' W 117°53'2 5.1
2017-Oct-05 20:30N 33°36' W 117°56'3 7.0
2017-Oct-05 20:00N 33°38' W 117°59'4 7.0
2017-Oct-05 19:30N 33°40' W 118°02'3 6.9
2017-Oct-05 19:00N 33°43' W 118°06'4 6.4
2017-Oct-05 18:26N 33°44' W 118°10'3 6.5
2017-Oct-05 18:00N 33°43' W 118°13'  
2017-Sep-29 22:04N 33°43' W 118°17'0 0.0
2017-Sep-29 21:58N 33°43' W 118°17'0 0.0
2017-Sep-29 21:16N 33°43' W 118°17'0 0.0
2017-Sep-29 20:58N 33°43' W 118°17'0 0.0
2017-Sep-29 20:28N 33°43' W 118°17'0 0.0
2017-Sep-29 19:58N 33°43' W 118°17'0 0.0
2017-Sep-29 19:28N 33°43' W 118°17'0 0.0
2017-Sep-29 18:58N 33°43' W 118°17'0 0.0
2017-Sep-29 18:28N 33°43' W 118°17'0 0.0
2017-Sep-29 17:58N 33°43' W 118°17'0 0.0
2017-Sep-29 17:28N 33°43' W 118°17'0 0.0
2017-Sep-29 16:58N 33°43' W 118°17'0 0.0
2017-Sep-29 16:31N 33°43' W 118°17'0 0.0
2017-Sep-27 21:20N 33°43' W 118°17'  
Track history (hours):
 
Tides and Currents Weather Stations Pressure Air Temp Water Temp Dewpoint Dewpoint Depression Visibility Wind Speed Wind Dir Waves Ship Positions

Shenanigans

Owner: Winton, Gary J, El Segundo, CA. More information available from US FCC via Universal Licensing System and Coast Guard Vessel Documentation Center.

Last reported at 2017-Oct-06 17:58 UTC. Time now 2017-Nov-25 02:15 UTC.
Position N 32°43' W 117°13'.
Warning: this ship's position is 49 days out of date.

Length 10 m.

Type: Sailing vessel. MMSI: 367329210.

Date/timePositionNaut miles runAvg speedWind from/ knotsBaromVisibWave heightAir tempDewpointWater temp
2017-Oct-06 17:58N 32°43' W 117°13'0 0.6
2017-Oct-06 17:27N 32°43' W 117°13'3 6.4
2017-Oct-06 17:00N 32°40' W 117°14'2 4.2
2017-Oct-06 16:30N 32°41' W 117°16'3 6.4
2017-Oct-06 15:59N 32°44' W 117°17'3 6.7
2017-Oct-06 15:30N 32°47' W 117°18'3 7.0
2017-Oct-06 15:00N 32°50' W 117°18'4 7.0
2017-Oct-06 14:30N 32°54' W 117°20'3 6.9
2017-Oct-06 14:00N 32°57' W 117°21'3 7.0
2017-Oct-06 13:30N 32°60' W 117°24'3 6.9
2017-Oct-06 13:00N 33°03' W 117°26'3 6.9
2017-Oct-06 12:30N 33°05' W 117°29'3 6.8
2017-Oct-06 12:00N 33°08' W 117°31'3 6.8
2017-Oct-06 11:30N 33°11' W 117°33'3 6.9
2017-Oct-06 11:00N 33°14' W 117°36'3 6.9
2017-Oct-06 10:30N 33°17' W 117°38'3 7.0
2017-Oct-06 10:00N 33°19' W 117°40'3 7.0
2017-Oct-06 09:30N 33°22' W 117°43'3 6.9
2017-Oct-06 09:00N 33°25' W 117°45'3 6.6
2017-Oct-06 08:30N 33°28' W 117°47'3 6.8
2017-Oct-06 08:00N 33°31' W 117°50'3 7.0
2017-Oct-06 07:30N 33°34' W 117°52'3 5.6
2017-Oct-06 07:00N 33°36' W 117°53'0 0.0
2017-Oct-05 21:33N 33°36' W 117°53'0 0.0
2017-Oct-05 21:30N 33°36' W 117°53'1 1.0
2017-Oct-05 20:59N 33°36' W 117°53'2 5.1
2017-Oct-05 20:30N 33°36' W 117°56'3 7.0
2017-Oct-05 20:00N 33°38' W 117°59'4 7.0
2017-Oct-05 19:30N 33°40' W 118°02'3 6.9
2017-Oct-05 19:00N 33°43' W 118°06'4 6.4
2017-Oct-05 18:26N 33°44' W 118°10'3 6.5
2017-Oct-05 18:00N 33°43' W 118°13'  
2017-Sep-29 22:04N 33°43' W 118°17'0 0.0
2017-Sep-29 21:58N 33°43' W 118°17'0 0.0
2017-Sep-29 21:16N 33°43' W 118°17'0 0.0
2017-Sep-29 20:58N 33°43' W 118°17'0 0.0
2017-Sep-29 20:28N 33°43' W 118°17'0 0.0
2017-Sep-29 19:58N 33°43' W 118°17'0 0.0
2017-Sep-29 19:28N 33°43' W 118°17'0 0.0
2017-Sep-29 18:58N 33°43' W 118°17'0 0.0
2017-Sep-29 18:28N 33°43' W 118°17'0 0.0
2017-Sep-29 17:58N 33°43' W 118°17'0 0.0
2017-Sep-29 17:28N 33°43' W 118°17'0 0.0
2017-Sep-29 16:58N 33°43' W 118°17'0 0.0
2017-Sep-29 16:31N 33°43' W 118°17'0 0.0
2017-Sep-27 21:20N 33°43' W 118°17'  

Dump ship's entire track history